sensor_id;sensor_type;location;lat;lon;timestamp;P1;durP1;ratioP1;P2;durP2;ratioP2
7941;SDS011;4016;50.758;7.150;2023-04-25T00:01:58;6.03;;;3.30;;
7941;SDS011;4016;50.758;7.150;2023-04-25T00:06:59;4.00;;;3.40;;
7941;SDS011;4016;50.758;7.150;2023-04-25T00:12:03;6.97;;;4.17;;
7941;SDS011;4016;50.758;7.150;2023-04-25T00:17:04;6.13;;;3.73;;
7941;SDS011;4016;50.758;7.150;2023-04-25T00:22:04;7.03;;;3.57;;
7941;SDS011;4016;50.758;7.150;2023-04-25T00:27:05;8.03;;;4.00;;
7941;SDS011;4016;50.758;7.150;2023-04-25T00:32:05;6.30;;;3.53;;
7941;SDS011;4016;50.758;7.150;2023-04-25T00:37:06;4.77;;;3.57;;
7941;SDS011;4016;50.758;7.150;2023-04-25T00:42:06;5.47;;;3.70;;
7941;SDS011;4016;50.758;7.150;2023-04-25T00:47:08;4.63;;;3.97;;
7941;SDS011;4016;50.758;7.150;2023-04-25T00:52:08;5.70;;;3.80;;
7941;SDS011;4016;50.758;7.150;2023-04-25T00:57:10;6.27;;;3.80;;
7941;SDS011;4016;50.758;7.150;2023-04-25T01:02:10;7.43;;;3.77;;
7941;SDS011;4016;50.758;7.150;2023-04-25T01:07:11;6.60;;;3.47;;
7941;SDS011;4016;50.758;7.150;2023-04-25T01:12:11;5.20;;;3.87;;
7941;SDS011;4016;50.758;7.150;2023-04-25T01:17:12;5.13;;;3.70;;
7941;SDS011;4016;50.758;7.150;2023-04-25T01:22:13;4.13;;;3.53;;
7941;SDS011;4016;50.758;7.150;2023-04-25T01:27:14;5.83;;;3.63;;
7941;SDS011;4016;50.758;7.150;2023-04-25T01:32:15;5.13;;;3.47;;
7941;SDS011;4016;50.758;7.150;2023-04-25T01:37:16;4.93;;;4.30;;
7941;SDS011;4016;50.758;7.150;2023-04-25T01:42:16;5.30;;;3.70;;
7941;SDS011;4016;50.758;7.150;2023-04-25T01:47:17;4.67;;;3.60;;
7941;SDS011;4016;50.758;7.150;2023-04-25T01:52:18;6.03;;;3.83;;
7941;SDS011;4016;50.758;7.150;2023-04-25T01:57:18;5.80;;;3.80;;
7941;SDS011;4016;50.758;7.150;2023-04-25T02:02:18;9.23;;;3.63;;
7941;SDS011;4016;50.758;7.150;2023-04-25T02:07:19;6.73;;;3.43;;
7941;SDS011;4016;50.758;7.150;2023-04-25T02:12:19;5.53;;;3.50;;
7941;SDS011;4016;50.758;7.150;2023-04-25T02:17:20;6.20;;;3.63;;
7941;SDS011;4016;50.758;7.150;2023-04-25T02:22:21;4.13;;;3.73;;
7941;SDS011;4016;50.758;7.150;2023-04-25T02:27:21;6.27;;;4.53;;
7941;SDS011;4016;50.758;7.150;2023-04-25T02:32:22;8.13;;;4.57;;
7941;SDS011;4016;50.758;7.150;2023-04-25T02:37:22;4.57;;;3.93;;
7941;SDS011;4016;50.758;7.150;2023-04-25T02:42:22;7.20;;;4.00;;
7941;SDS011;4016;50.758;7.150;2023-04-25T02:47:23;7.07;;;3.63;;
7941;SDS011;4016;50.758;7.150;2023-04-25T02:52:23;6.27;;;3.87;;
7941;SDS011;4016;50.758;7.150;2023-04-25T02:57:24;5.07;;;3.67;;
7941;SDS011;4016;50.758;7.150;2023-04-25T03:02:25;7.47;;;3.67;;
7941;SDS011;4016;50.758;7.150;2023-04-25T03:07:25;6.10;;;3.83;;
7941;SDS011;4016;50.758;7.150;2023-04-25T03:12:25;5.20;;;3.97;;
7941;SDS011;4016;50.758;7.150;2023-04-25T03:17:26;5.73;;;3.80;;
7941;SDS011;4016;50.758;7.150;2023-04-25T03:22:26;5.93;;;3.63;;
7941;SDS011;4016;50.758;7.150;2023-04-25T03:27:27;7.03;;;3.80;;
7941;SDS011;4016;50.758;7.150;2023-04-25T03:32:27;5.23;;;3.80;;
7941;SDS011;4016;50.758;7.150;2023-04-25T03:37:27;5.17;;;3.87;;
7941;SDS011;4016;50.758;7.150;2023-04-25T03:42:28;6.83;;;3.87;;
7941;SDS011;4016;50.758;7.150;2023-04-25T03:47:28;4.70;;;3.80;;
7941;SDS011;4016;50.758;7.150;2023-04-25T03:52:29;6.57;;;4.43;;
7941;SDS011;4016;50.758;7.150;2023-04-25T03:57:29;7.30;;;4.33;;
7941;SDS011;4016;50.758;7.150;2023-04-25T04:02:30;5.37;;;4.00;;
7941;SDS011;4016;50.758;7.150;2023-04-25T04:07:31;8.50;;;4.27;;
7941;SDS011;4016;50.758;7.150;2023-04-25T04:12:33;6.63;;;4.03;;
7941;SDS011;4016;50.758;7.150;2023-04-25T04:17:33;5.17;;;3.87;;
7941;SDS011;4016;50.758;7.150;2023-04-25T04:22:34;6.47;;;4.13;;
7941;SDS011;4016;50.758;7.150;2023-04-25T04:27:34;9.37;;;5.30;;
7941;SDS011;4016;50.758;7.150;2023-04-25T04:32:35;10.27;;;4.60;;
7941;SDS011;4016;50.758;7.150;2023-04-25T04:37:37;10.47;;;4.53;;
7941;SDS011;4016;50.758;7.150;2023-04-25T04:42:37;11.13;;;4.27;;
7941;SDS011;4016;50.758;7.150;2023-04-25T04:47:38;7.40;;;4.63;;
7941;SDS011;4016;50.758;7.150;2023-04-25T04:52:39;6.63;;;4.63;;
7941;SDS011;4016;50.758;7.150;2023-04-25T04:57:39;8.13;;;4.30;;
7941;SDS011;4016;50.758;7.150;2023-04-25T05:02:40;7.80;;;4.50;;
7941;SDS011;4016;50.758;7.150;2023-04-25T05:07:40;7.60;;;4.37;;
7941;SDS011;4016;50.758;7.150;2023-04-25T05:12:40;8.83;;;4.57;;
7941;SDS011;4016;50.758;7.150;2023-04-25T05:17:41;6.10;;;4.83;;
7941;SDS011;4016;50.758;7.150;2023-04-25T05:22:41;6.33;;;4.83;;
7941;SDS011;4016;50.758;7.150;2023-04-25T05:27:41;7.20;;;4.60;;
7941;SDS011;4016;50.758;7.150;2023-04-25T05:32:42;12.10;;;5.87;;
7941;SDS011;4016;50.758;7.150;2023-04-25T05:37:42;8.50;;;4.87;;
7941;SDS011;4016;50.758;7.150;2023-04-25T05:42:43;8.83;;;5.13;;
7941;SDS011;4016;50.758;7.150;2023-04-25T05:47:43;12.60;;;5.13;;
7941;SDS011;4016;50.758;7.150;2023-04-25T05:52:43;7.87;;;4.73;;
7941;SDS011;4016;50.758;7.150;2023-04-25T05:57:44;8.07;;;4.90;;
7941;SDS011;4016;50.758;7.150;2023-04-25T06:02:45;9.40;;;5.30;;
7941;SDS011;4016;50.758;7.150;2023-04-25T06:07:45;10.07;;;5.07;;
7941;SDS011;4016;50.758;7.150;2023-04-25T06:12:45;6.43;;;4.63;;
7941;SDS011;4016;50.758;7.150;2023-04-25T06:17:46;7.33;;;4.53;;
7941;SDS011;4016;50.758;7.150;2023-04-25T06:22:46;10.03;;;4.33;;
7941;SDS011;4016;50.758;7.150;2023-04-25T06:27:47;11.40;;;4.57;;
7941;SDS011;4016;50.758;7.150;2023-04-25T06:32:47;7.57;;;4.13;;
7941;SDS011;4016;50.758;7.150;2023-04-25T06:37:49;7.67;;;4.37;;
7941;SDS011;4016;50.758;7.150;2023-04-25T06:42:49;8.60;;;4.47;;
7941;SDS011;4016;50.758;7.150;2023-04-25T06:47:49;7.33;;;4.07;;
7941;SDS011;4016;50.758;7.150;2023-04-25T06:52:50;7.20;;;4.07;;
7941;SDS011;4016;50.758;7.150;2023-04-25T06:57:50;7.47;;;4.50;;
7941;SDS011;4016;50.758;7.150;2023-04-25T07:02:51;6.57;;;4.53;;
7941;SDS011;4016;50.758;7.150;2023-04-25T07:07:51;6.07;;;4.13;;
7941;SDS011;4016;50.758;7.150;2023-04-25T07:12:51;11.37;;;3.87;;
7941;SDS011;4016;50.758;7.150;2023-04-25T07:17:52;6.67;;;4.80;;
7941;SDS011;4016;50.758;7.150;2023-04-25T07:22:52;9.17;;;4.63;;
7941;SDS011;4016;50.758;7.150;2023-04-25T07:27:53;11.90;;;5.13;;
7941;SDS011;4016;50.758;7.150;2023-04-25T07:32:53;8.17;;;3.60;;
7941;SDS011;4016;50.758;7.150;2023-04-25T07:37:53;5.87;;;3.63;;
7941;SDS011;4016;50.758;7.150;2023-04-25T07:42:54;9.13;;;4.00;;
7941;SDS011;4016;50.758;7.150;2023-04-25T07:47:54;6.70;;;3.87;;
7941;SDS011;4016;50.758;7.150;2023-04-25T07:52:55;7.03;;;3.60;;
7941;SDS011;4016;50.758;7.150;2023-04-25T07:57:55;10.13;;;4.17;;
7941;SDS011;4016;50.758;7.150;2023-04-25T08:02:55;8.97;;;3.90;;
7941;SDS011;4016;50.758;7.150;2023-04-25T08:07:56;8.90;;;4.20;;
7941;SDS011;4016;50.758;7.150;2023-04-25T08:12:56;5.63;;;3.43;;
7941;SDS011;4016;50.758;7.150;2023-04-25T08:17:57;11.20;;;3.10;;
7941;SDS011;4016;50.758;7.150;2023-04-25T08:22:57;6.43;;;3.13;;
7941;SDS011;4016;50.758;7.150;2023-04-25T08:27:57;10.10;;;2.67;;
7941;SDS011;4016;50.758;7.150;2023-04-25T08:32:59;6.27;;;2.90;;
7941;SDS011;4016;50.758;7.150;2023-04-25T08:37:59;5.37;;;2.47;;
7941;SDS011;4016;50.758;7.150;2023-04-25T08:43:01;5.67;;;3.23;;
7941;SDS011;4016;50.758;7.150;2023-04-25T08:48:03;5.50;;;3.27;;
7941;SDS011;4016;50.758;7.150;2023-04-25T08:53:05;5.73;;;2.63;;
7941;SDS011;4016;50.758;7.150;2023-04-25T08:58:10;4.83;;;3.40;;
7941;SDS011;4016;50.758;7.150;2023-04-25T09:03:11;7.93;;;3.07;;
7941;SDS011;4016;50.758;7.150;2023-04-25T09:08:11;6.80;;;3.17;;
7941;SDS011;4016;50.758;7.150;2023-04-25T09:13:13;5.90;;;2.97;;
7941;SDS011;4016;50.758;7.150;2023-04-25T09:18:23;4.20;;;2.97;;
7941;SDS011;4016;50.758;7.150;2023-04-25T09:23:25;4.90;;;3.23;;
7941;SDS011;4016;50.758;7.150;2023-04-25T09:28:26;5.90;;;2.73;;
7941;SDS011;4016;50.758;7.150;2023-04-25T09:33:31;5.37;;;3.40;;
7941;SDS011;4016;50.758;7.150;2023-04-25T09:38:32;2.90;;;2.40;;
7941;SDS011;4016;50.758;7.150;2023-04-25T09:43:45;4.50;;;2.63;;
7941;SDS011;4016;50.758;7.150;2023-04-25T09:48:49;7.60;;;2.90;;
7941;SDS011;4016;50.758;7.150;2023-04-25T09:53:50;5.13;;;2.83;;
7941;SDS011;4016;50.758;7.150;2023-04-25T09:58:51;6.97;;;2.63;;
7941;SDS011;4016;50.758;7.150;2023-04-25T10:03:54;5.33;;;3.40;;
7941;SDS011;4016;50.758;7.150;2023-04-25T10:08:57;3.40;;;2.83;;
7941;SDS011;4016;50.758;7.150;2023-04-25T10:13:58;4.27;;;2.90;;
7941;SDS011;4016;50.758;7.150;2023-04-25T10:19:00;5.97;;;3.40;;
7941;SDS011;4016;50.758;7.150;2023-04-25T10:24:01;7.33;;;2.97;;
7941;SDS011;4016;50.758;7.150;2023-04-25T10:29:03;5.37;;;3.33;;
7941;SDS011;4016;50.758;7.150;2023-04-25T10:34:03;4.30;;;2.70;;
7941;SDS011;4016;50.758;7.150;2023-04-25T10:39:05;5.17;;;2.80;;
7941;SDS011;4016;50.758;7.150;2023-04-25T10:44:09;4.17;;;2.40;;
7941;SDS011;4016;50.758;7.150;2023-04-25T10:49:10;4.30;;;2.60;;
7941;SDS011;4016;50.758;7.150;2023-04-25T10:54:10;4.17;;;2.67;;
7941;SDS011;4016;50.758;7.150;2023-04-25T10:59:12;3.33;;;2.00;;
7941;SDS011;4016;50.758;7.150;2023-04-25T11:04:23;3.60;;;2.63;;
7941;SDS011;4016;50.758;7.150;2023-04-25T11:09:29;3.07;;;2.60;;
7941;SDS011;4016;50.758;7.150;2023-04-25T11:14:30;4.37;;;2.80;;
7941;SDS011;4016;50.758;7.150;2023-04-25T11:19:31;4.83;;;2.90;;
7941;SDS011;4016;50.758;7.150;2023-04-25T11:24:32;5.33;;;3.10;;
7941;SDS011;4016;50.758;7.150;2023-04-25T11:29:37;7.53;;;3.10;;
7941;SDS011;4016;50.758;7.150;2023-04-25T11:34:37;4.57;;;2.47;;
7941;SDS011;4016;50.758;7.150;2023-04-25T11:39:37;7.00;;;2.90;;
7941;SDS011;4016;50.758;7.150;2023-04-25T11:44:39;3.30;;;2.30;;
7941;SDS011;4016;50.758;7.150;2023-04-25T11:49:40;2.90;;;2.13;;
7941;SDS011;4016;50.758;7.150;2023-04-25T11:54:41;5.20;;;2.50;;
7941;SDS011;4016;50.758;7.150;2023-04-25T11:59:44;4.60;;;2.70;;
7941;SDS011;4016;50.758;7.150;2023-04-25T12:04:45;6.33;;;2.70;;
7941;SDS011;4016;50.758;7.150;2023-04-25T12:09:51;5.33;;;2.53;;
7941;SDS011;4016;50.758;7.150;2023-04-25T12:14:52;2.40;;;2.20;;
7941;SDS011;4016;50.758;7.150;2023-04-25T12:19:52;3.47;;;1.80;;
7941;SDS011;4016;50.758;7.150;2023-04-25T12:24:52;3.27;;;2.23;;
7941;SDS011;4016;50.758;7.150;2023-04-25T12:29:54;3.43;;;2.13;;
7941;SDS011;4016;50.758;7.150;2023-04-25T12:34:56;2.33;;;2.07;;
7941;SDS011;4016;50.758;7.150;2023-04-25T12:39:56;4.30;;;2.17;;
7941;SDS011;4016;50.758;7.150;2023-04-25T12:44:56;7.20;;;2.40;;
7941;SDS011;4016;50.758;7.150;2023-04-25T12:49:57;5.40;;;2.30;;
7941;SDS011;4016;50.758;7.150;2023-04-25T12:54:57;6.03;;;2.63;;
7941;SDS011;4016;50.758;7.150;2023-04-25T12:59:57;4.93;;;2.77;;
7941;SDS011;4016;50.758;7.150;2023-04-25T13:04:58;2.50;;;2.27;;
7941;SDS011;4016;50.758;7.150;2023-04-25T13:09:58;3.33;;;2.60;;
7941;SDS011;4016;50.758;7.150;2023-04-25T13:14:59;3.67;;;2.50;;
7941;SDS011;4016;50.758;7.150;2023-04-25T13:19:59;2.83;;;2.50;;
7941;SDS011;4016;50.758;7.150;2023-04-25T13:24:59;4.80;;;2.17;;
7941;SDS011;4016;50.758;7.150;2023-04-25T13:30:00;3.67;;;2.83;;
7941;SDS011;4016;50.758;7.150;2023-04-25T13:35:08;5.63;;;2.70;;
7941;SDS011;4016;50.758;7.150;2023-04-25T13:40:10;3.47;;;2.57;;
7941;SDS011;4016;50.758;7.150;2023-04-25T13:45:11;1.97;;;1.83;;
7941;SDS011;4016;50.758;7.150;2023-04-25T13:50:11;2.30;;;2.10;;
7941;SDS011;4016;50.758;7.150;2023-04-25T13:55:12;3.47;;;2.83;;
7941;SDS011;4016;50.758;7.150;2023-04-25T14:00:12;3.53;;;2.30;;
7941;SDS011;4016;50.758;7.150;2023-04-25T14:05:13;3.90;;;2.80;;
7941;SDS011;4016;50.758;7.150;2023-04-25T14:10:14;3.93;;;2.50;;
7941;SDS011;4016;50.758;7.150;2023-04-25T14:15:14;5.13;;;3.07;;
7941;SDS011;4016;50.758;7.150;2023-04-25T14:20:15;3.03;;;2.40;;
7941;SDS011;4016;50.758;7.150;2023-04-25T14:25:20;4.10;;;2.50;;
7941;SDS011;4016;50.758;7.150;2023-04-25T14:30:21;4.07;;;2.70;;
7941;SDS011;4016;50.758;7.150;2023-04-25T14:35:21;2.23;;;2.03;;
7941;SDS011;4016;50.758;7.150;2023-04-25T14:40:22;2.17;;;1.97;;
7941;SDS011;4016;50.758;7.150;2023-04-25T14:45:23;4.67;;;2.40;;
7941;SDS011;4016;50.758;7.150;2023-04-25T14:50:23;2.23;;;2.03;;
7941;SDS011;4016;50.758;7.150;2023-04-25T14:55:23;2.63;;;2.13;;
7941;SDS011;4016;50.758;7.150;2023-04-25T15:00:24;3.70;;;2.43;;
7941;SDS011;4016;50.758;7.150;2023-04-25T15:05:25;2.37;;;2.23;;
7941;SDS011;4016;50.758;7.150;2023-04-25T15:10:25;2.50;;;2.30;;
7941;SDS011;4016;50.758;7.150;2023-04-25T15:15:26;5.17;;;2.00;;
7941;SDS011;4016;50.758;7.150;2023-04-25T15:20:26;5.17;;;2.37;;
7941;SDS011;4016;50.758;7.150;2023-04-25T15:25:27;2.90;;;1.80;;
7941;SDS011;4016;50.758;7.150;2023-04-25T15:30:28;2.27;;;2.13;;
7941;SDS011;4016;50.758;7.150;2023-04-25T15:35:28;3.60;;;1.97;;
7941;SDS011;4016;50.758;7.150;2023-04-25T15:40:29;1.40;;;1.30;;
7941;SDS011;4016;50.758;7.150;2023-04-25T15:45:29;2.80;;;1.50;;
7941;SDS011;4016;50.758;7.150;2023-04-25T15:50:31;2.97;;;1.97;;
7941;SDS011;4016;50.758;7.150;2023-04-25T15:55:31;5.43;;;2.17;;
7941;SDS011;4016;50.758;7.150;2023-04-25T16:00:33;3.50;;;1.97;;
7941;SDS011;4016;50.758;7.150;2023-04-25T16:05:35;3.57;;;2.30;;
7941;SDS011;4016;50.758;7.150;2023-04-25T16:10:36;2.20;;;2.00;;
7941;SDS011;4016;50.758;7.150;2023-04-25T16:15:37;2.87;;;2.23;;
7941;SDS011;4016;50.758;7.150;2023-04-25T16:20:38;4.87;;;2.27;;
7941;SDS011;4016;50.758;7.150;2023-04-25T16:25:39;5.73;;;2.33;;
7941;SDS011;4016;50.758;7.150;2023-04-25T16:30:39;6.20;;;2.47;;
7941;SDS011;4016;50.758;7.150;2023-04-25T16:35:40;2.20;;;1.90;;
7941;SDS011;4016;50.758;7.150;2023-04-25T16:40:40;3.40;;;2.00;;
7941;SDS011;4016;50.758;7.150;2023-04-25T16:45:41;3.47;;;1.93;;
7941;SDS011;4016;50.758;7.150;2023-04-25T16:50:41;3.57;;;2.00;;
7941;SDS011;4016;50.758;7.150;2023-04-25T16:55:41;3.00;;;1.93;;
7941;SDS011;4016;50.758;7.150;2023-04-25T17:00:42;3.17;;;1.90;;
7941;SDS011;4016;50.758;7.150;2023-04-25T17:05:42;3.77;;;1.90;;
7941;SDS011;4016;50.758;7.150;2023-04-25T17:10:43;3.37;;;2.30;;
7941;SDS011;4016;50.758;7.150;2023-04-25T17:15:43;3.43;;;2.67;;
7941;SDS011;4016;50.758;7.150;2023-04-25T17:20:44;2.70;;;2.23;;
7941;SDS011;4016;50.758;7.150;2023-04-25T17:25:45;2.10;;;1.83;;
7941;SDS011;4016;50.758;7.150;2023-04-25T17:30:45;2.47;;;2.20;;
7941;SDS011;4016;50.758;7.150;2023-04-25T17:35:45;4.30;;;2.00;;
7941;SDS011;4016;50.758;7.150;2023-04-25T17:40:46;3.73;;;2.40;;
7941;SDS011;4016;50.758;7.150;2023-04-25T17:45:47;2.33;;;2.10;;
7941;SDS011;4016;50.758;7.150;2023-04-25T17:50:47;2.77;;;2.47;;
7941;SDS011;4016;50.758;7.150;2023-04-25T17:55:48;2.63;;;2.40;;
7941;SDS011;4016;50.758;7.150;2023-04-25T18:00:49;4.00;;;2.23;;
7941;SDS011;4016;50.758;7.150;2023-04-25T18:05:50;3.13;;;2.60;;
7941;SDS011;4016;50.758;7.150;2023-04-25T18:10:50;3.77;;;2.57;;
7941;SDS011;4016;50.758;7.150;2023-04-25T18:15:51;4.40;;;2.90;;
7941;SDS011;4016;50.758;7.150;2023-04-25T18:20:51;2.63;;;2.20;;
7941;SDS011;4016;50.758;7.150;2023-04-25T18:25:52;3.73;;;2.50;;
7941;SDS011;4016;50.758;7.150;2023-04-25T18:30:53;2.80;;;2.50;;
7941;SDS011;4016;50.758;7.150;2023-04-25T18:35:53;2.53;;;2.03;;
7941;SDS011;4016;50.758;7.150;2023-04-25T18:40:53;2.67;;;1.90;;
7941;SDS011;4016;50.758;7.150;2023-04-25T18:45:54;2.57;;;2.27;;
7941;SDS011;4016;50.758;7.150;2023-04-25T18:50:54;2.37;;;2.00;;
7941;SDS011;4016;50.758;7.150;2023-04-25T18:55:55;4.10;;;2.33;;
7941;SDS011;4016;50.758;7.150;2023-04-25T19:00:55;2.23;;;2.03;;
7941;SDS011;4016;50.758;7.150;2023-04-25T19:05:55;2.80;;;2.23;;
7941;SDS011;4016;50.758;7.150;2023-04-25T19:10:56;3.50;;;2.20;;
7941;SDS011;4016;50.758;7.150;2023-04-25T19:15:57;6.27;;;2.70;;
7941;SDS011;4016;50.758;7.150;2023-04-25T19:20:57;3.50;;;3.00;;
7941;SDS011;4016;50.758;7.150;2023-04-25T19:25:57;4.53;;;3.13;;
7941;SDS011;4016;50.758;7.150;2023-04-25T19:30:58;4.90;;;3.37;;
7941;SDS011;4016;50.758;7.150;2023-04-25T19:35:58;3.80;;;2.83;;
7941;SDS011;4016;50.758;7.150;2023-04-25T19:40:58;7.97;;;2.70;;
7941;SDS011;4016;50.758;7.150;2023-04-25T19:46:00;5.20;;;2.80;;
7941;SDS011;4016;50.758;7.150;2023-04-25T19:51:00;3.07;;;2.77;;
7941;SDS011;4016;50.758;7.150;2023-04-25T19:56:00;2.77;;;2.57;;
7941;SDS011;4016;50.758;7.150;2023-04-25T20:01:01;2.30;;;2.20;;
7941;SDS011;4016;50.758;7.150;2023-04-25T20:06:03;2.77;;;2.40;;
7941;SDS011;4016;50.758;7.150;2023-04-25T20:11:03;2.80;;;2.27;;
7941;SDS011;4016;50.758;7.150;2023-04-25T20:16:03;2.70;;;2.50;;
7941;SDS011;4016;50.758;7.150;2023-04-25T20:21:04;4.10;;;2.70;;
7941;SDS011;4016;50.758;7.150;2023-04-25T20:26:05;3.70;;;3.13;;
7941;SDS011;4016;50.758;7.150;2023-04-25T20:31:05;2.67;;;2.47;;
7941;SDS011;4016;50.758;7.150;2023-04-25T20:36:06;5.20;;;2.73;;
7941;SDS011;4016;50.758;7.150;2023-04-25T20:41:06;6.30;;;3.40;;
7941;SDS011;4016;50.758;7.150;2023-04-25T20:46:07;6.47;;;2.90;;
7941;SDS011;4016;50.758;7.150;2023-04-25T20:51:07;3.00;;;2.53;;
7941;SDS011;4016;50.758;7.150;2023-04-25T20:56:08;6.03;;;2.57;;
7941;SDS011;4016;50.758;7.150;2023-04-25T21:01:09;3.47;;;2.33;;
7941;SDS011;4016;50.758;7.150;2023-04-25T21:06:10;2.47;;;2.07;;
7941;SDS011;4016;50.758;7.150;2023-04-25T21:11:10;4.00;;;2.33;;
7941;SDS011;4016;50.758;7.150;2023-04-25T21:16:11;2.50;;;2.07;;
7941;SDS011;4016;50.758;7.150;2023-04-25T21:21:12;2.63;;;2.43;;
7941;SDS011;4016;50.758;7.150;2023-04-25T21:26:12;4.87;;;2.20;;
7941;SDS011;4016;50.758;7.150;2023-04-25T21:31:13;3.73;;;2.20;;
7941;SDS011;4016;50.758;7.150;2023-04-25T21:36:14;3.90;;;2.30;;
7941;SDS011;4016;50.758;7.150;2023-04-25T21:41:14;2.87;;;2.17;;
7941;SDS011;4016;50.758;7.150;2023-04-25T21:46:15;3.30;;;2.40;;
7941;SDS011;4016;50.758;7.150;2023-04-25T21:51:15;2.47;;;2.23;;
7941;SDS011;4016;50.758;7.150;2023-04-25T21:56:16;2.53;;;2.33;;
7941;SDS011;4016;50.758;7.150;2023-04-25T22:01:17;3.90;;;2.63;;
7941;SDS011;4016;50.758;7.150;2023-04-25T22:06:17;2.53;;;2.20;;
7941;SDS011;4016;50.758;7.150;2023-04-25T22:11:17;2.53;;;2.33;;
7941;SDS011;4016;50.758;7.150;2023-04-25T22:16:18;4.33;;;2.63;;
7941;SDS011;4016;50.758;7.150;2023-04-25T22:21:19;2.73;;;2.40;;
7941;SDS011;4016;50.758;7.150;2023-04-25T22:26:19;2.90;;;2.43;;
7941;SDS011;4016;50.758;7.150;2023-04-25T22:31:19;2.33;;;2.17;;
7941;SDS011;4016;50.758;7.150;2023-04-25T22:36:20;4.47;;;2.43;;
7941;SDS011;4016;50.758;7.150;2023-04-25T22:41:22;4.63;;;3.17;;
7941;SDS011;4016;50.758;7.150;2023-04-25T22:46:23;4.47;;;2.80;;
7941;SDS011;4016;50.758;7.150;2023-04-25T22:51:23;4.83;;;2.60;;
7941;SDS011;4016;50.758;7.150;2023-04-25T22:56:25;2.13;;;1.93;;
7941;SDS011;4016;50.758;7.150;2023-04-25T23:01:27;5.30;;;2.90;;
7941;SDS011;4016;50.758;7.150;2023-04-25T23:06:28;2.23;;;2.13;;
7941;SDS011;4016;50.758;7.150;2023-04-25T23:11:28;5.17;;;2.67;;
7941;SDS011;4016;50.758;7.150;2023-04-25T23:16:29;2.57;;;2.27;;
7941;SDS011;4016;50.758;7.150;2023-04-25T23:21:29;5.17;;;2.70;;
7941;SDS011;4016;50.758;7.150;2023-04-25T23:26:30;3.53;;;2.20;;
7941;SDS011;4016;50.758;7.150;2023-04-25T23:31:30;3.53;;;2.83;;
7941;SDS011;4016;50.758;7.150;2023-04-25T23:36:31;3.90;;;3.13;;
7941;SDS011;4016;50.758;7.150;2023-04-25T23:41:31;2.40;;;2.20;;
7941;SDS011;4016;50.758;7.150;2023-04-25T23:46:32;2.80;;;2.40;;
7941;SDS011;4016;50.758;7.150;2023-04-25T23:51:33;2.80;;;2.60;;
7941;SDS011;4016;50.758;7.150;2023-04-25T23:56:33;2.10;;;1.97;;
